Terminal Aerodrome Forecast
Issued by NWS

Home | Current Version | Previous Version | Text Only | Print | Product List | Glossary On
Versions: 1 2 3 4 5 6 7 8 9 10 11 12
000
FTUS42 TJSJ 042346
TAFISX
TAF
TISX 042346Z 0500/0524 09012KT P6SM FEW024
     FM051330 10016G24KT P6SM FEW030
     FM052300 07009KT P6SM FEW025=

USA.gov is the U.S. government's official web portal to all federal, state and local government web resources and services.